Paso Robles Municipal Airport
KPRB : now visible

Airfield :











YOU CAN JOIN US ON...

 
LOGIN :

Register | Disclaimer

   EN    FR    IT 

 









Legend :    VFR   Marginal VFR   IFR   Intensive IFR   Very Intensive IFR
Visi :
Ceiling :
>= 8 km
>= 3000ft
5 to 8 km
1000 to 3000 ft
1500m to 5 km
500 to 1000 ft
800 to 1500m
200 to 500 ft
< 800m
< 200 ft
Symbols :   Thunderstorms  Fog  Heavy snow  Heavy precipitations  Wind > 20 kt







- Airport Elevation : 840 ft


KPRB - Paso Robles Municipal

CURRENT METAR :
  • 181153Z AUTO 00000KT 10SM CLR 09/05 A2995 RMK AO2 SLP138 T00890050 10167 20089 58004

EXPIRED METARs :
  • 181053Z AUTO 00000KT 10SM CLR 10/05 A2996 RMK AO2 SLP139 T01000050
  • 180953Z AUTO 00000KT 10SM CLR 11/06 A2996 RMK AO2 SLP141 T01060056

TAF KPRB
Valid from the 18 at 12:00 until the 19 at 12:00 UTC


181120Z 1812/1912 VRB03KT P6SM SKC
FM182200 29010KT P6SM SKC
FM190100 29015G22KT P6SM SKC
FM190400 30009KT P6SM SKC
FM191100 35006KT P6SM SKC
No reported NOTAMs for that airfield.



MET'MAP, your aeronautical weather chart ! - Copyright ORBIFLY December 2007 - Disclaimer

ORBIFLY MET'MAP TEAM :

Programming & Development : Alexandra Zaïnal
Concept & Development : Baudouin d'Aumeries
Co-Development & Prog : Marc-Olivier Méhu
Technical & hardware support : Manuel Goepfert

Contact : metmap@orbifly.com




SOURCES & CREDITS :

   NOAA       Earth
Advisory